Time;durP1;ratioP1;P1;durP2;ratioP2;P2;SDS_P1;SDS_P2;PMS_P1;PMS_P2;Temp;Humidity;BMP_temperature;BMP_pressure;BME280_temperature;BME280_humidity;BME280_pressure;Samples;Min_cycle;Max_cycle;Signal;HPM_P1;HPM_P2
2023/03/09 09:36:21;;;;;;;32.20;19.05;;;4.50;99.90;;;;;;4918911;29;20048;-91
2023/03/09 09:38:50;;;;;;;35.13;19.25;;;5.00;99.90;;;;;;4920391;29;20036;-89
2023/03/09 09:41:50;;;;;;;36.00;20.55;;;4.00;99.90;;;;;;4921311;29;20028;-87
2023/03/09 09:44:24;;;;;;;;;;;4.40;99.90;;;;;;4883485;29;20434;-88
2023/03/09 09:46:56;;;;;;;33.80;18.98;;;4.50;99.90;;;;;;4925043;29;19907;-89
2023/03/09 09:49:28;;;;;;;32.70;19.30;;;4.40;99.90;;;;;;4932483;29;20040;-90
2023/03/09 09:52:28;;;;;;;37.83;20.23;;;4.90;99.90;;;;;;4920841;29;20031;-91
2023/03/09 09:58:30;;;;;;;34.13;20.23;;;4.30;99.90;;;;;;4921038;29;20448;-90
2023/03/09 10:01:00;;;;;;;41.90;21.80;;;4.30;99.90;;;;;;4920290;29;20028;-89
2023/03/09 10:03:57;;;;;;;42.22;20.85;;;3.90;99.90;;;;;;4920082;29;20028;-90
2023/03/09 10:06:28;;;;;;;35.08;19.48;;;4.40;99.90;;;;;;4918499;29;20107;-89
2023/03/09 10:09:29;;;;;;;35.60;20.60;;;4.50;99.90;;;;;;4920359;29;20036;-91
2023/03/09 10:11:58;;;;;;;41.28;22.08;;;4.50;99.90;;;;;;4920684;29;20032;-90
2023/03/09 10:14:59;;;;;;;36.15;20.15;;;5.10;99.90;;;;;;4920512;29;20044;-90
2023/03/09 10:20:33;;;;;;;36.45;20.52;;;4.50;99.90;;;;;;4920412;29;20504;-89
2023/03/09 10:22:59;;;;;;;35.90;19.88;;;5.30;99.90;;;;;;4921037;29;20107;-91
2023/03/09 11:06:41;;;;;;;45.55;23.73;;;4.30;99.90;;;;;;4865999;29;20050;-91
2023/03/09 14:21:36;;;;;;;33.03;21.00;;;4.20;99.90;;;;;;5090974;27;21285;-89
2023/03/09 14:24:36;;;;;;;39.38;20.27;;;4.70;99.90;;;;;;5090332;28;20048;-91
2023/03/09 14:28:04;;;;;;;31.25;19.05;;;4.10;99.90;;;;;;5090993;28;20021;-92
2023/03/09 14:31:07;;;;;;;33.38;19.48;;;3.70;99.90;;;;;;5048239;28;20061;-92
2023/03/09 14:37:36;;;;;;;32.45;17.60;;;3.90;99.90;;;;;;5049472;28;20107;-88
2023/03/09 14:41:06;;;;;;;34.92;19.75;;;3.70;99.90;;;;;;5047873;28;20041;-90
2023/03/09 14:43:43;;;;;;;33.90;19.38;;;4.20;99.90;;;;;;5048928;28;20029;-89
2023/03/09 14:46:44;;;;;;;30.30;18.77;;;4.60;99.90;;;;;;5089948;28;20040;-90
2023/03/09 14:49:12;;;;;;;29.50;17.58;;;3.70;99.90;;;;;;5090908;28;20028;-90
2023/03/09 14:51:41;;;;;;;30.40;18.30;;;5.10;99.90;;;;;;5091030;28;20345;-90
2023/03/09 14:54:12;;;;;;;34.30;17.90;;;4.70;99.90;;;;;;5075695;28;20108;-89
2023/03/09 14:56:38;;;;;;;30.17;17.27;;;4.90;99.90;;;;;;5090243;28;20017;-88
2023/03/09 14:59:14;;;;;;;28.58;18.15;;;4.20;99.90;;;;;;5090675;28;20016;-89
2023/03/09 15:01:47;;;;;;;25.13;16.15;;;5.30;99.90;;;;;;5088762;28;20034;-90
2023/03/09 15:04:15;;;;;;;28.20;17.50;;;4.20;99.90;;;;;;5092579;28;20024;-88
2023/03/09 15:06:41;;;;;;;27.98;16.95;;;4.80;99.90;;;;;;5096081;28;20058;-90
2023/03/09 15:09:16;;;;;;;28.65;16.52;;;5.10;99.90;;;;;;5090778;28;20031;-89
2023/03/09 15:11:42;;;;;;;27.63;16.40;;;4.70;99.90;;;;;;5088640;28;20499;-89
2023/03/09 15:14:43;;;;;;;27.48;17.52;;;4.70;99.90;;;;;;5090631;28;20105;-90
2023/03/09 15:17:41;;;;;;;27.83;16.88;;;4.10;99.90;;;;;;5087536;28;20028;-90
2023/03/09 15:20:21;;;;;;;24.73;16.33;;;4.10;99.90;;;;;;5087625;28;20052;-88
2023/03/09 15:22:47;;;;;;;30.58;17.08;;;3.40;99.90;;;;;;5072912;28;20048;-88
2023/03/09 15:25:17;;;;;;;27.88;16.75;;;5.10;99.90;;;;;;5076773;28;20033;-88
2023/03/09 15:27:43;;;;;;;28.55;16.30;;;4.60;99.90;;;;;;5075587;28;20028;-88
2023/03/09 15:30:15;;;;;;;27.13;15.52;;;4.70;99.90;;;;;;5075016;28;20059;-88
2023/03/09 15:32:44;;;;;;;29.65;17.00;;;4.10;99.90;;;;;;5075301;28;20025;-88
2023/03/09 15:35:18;;;;;;;30.27;16.85;;;4.70;99.90;;;;;;5075194;28;20036;-89
2023/03/09 15:37:44;;;;;;;26.10;16.67;;;4.10;99.90;;;;;;5075589;28;20165;-88
2023/03/09 15:40:17;;;;;;;24.02;15.10;;;4.70;99.90;;;;;;5075589;28;20024;-88
2023/03/09 15:42:46;;;;;;;25.95;14.80;;;4.00;99.90;;;;;;5075257;28;20044;-88
2023/03/09 15:45:17;;;;;;;23.13;13.95;;;4.30;99.90;;;;;;5075144;28;20025;-88
2023/03/09 15:47:51;;;;;;;23.98;14.60;;;3.90;99.90;;;;;;5074265;28;20021;-88
2023/03/09 15:50:17;;;;;;;26.35;15.13;;;4.10;99.90;;;;;;5074469;28;20032;-88
2023/03/09 15:52:50;;;;;;;23.50;15.18;;;4.00;99.90;;;;;;5074352;28;20166;-88
2023/03/09 15:55:19;;;;;;;24.67;14.45;;;4.10;99.90;;;;;;5074999;28;20474;-88
2023/03/09 15:57:44;;;;;;;25.15;14.27;;;4.30;99.90;;;;;;5074300;28;20028;-89
2023/03/09 16:00:16;;;;;;;26.48;15.80;;;4.80;99.90;;;;;;5074742;28;20016;-88
2023/03/09 16:02:46;;;;;;;23.08;14.35;;;4.00;99.90;;;;;;5075027;28;20033;-89
2023/03/09 16:05:17;;;;;;;24.20;14.88;;;4.70;99.90;;;;;;5074791;28;20467;-88
2023/03/09 16:07:46;;;;;;;23.02;14.07;;;4.10;99.90;;;;;;5077924;28;20051;-88
2023/03/09 16:10:18;;;;;;;21.60;13.18;;;3.80;99.90;;;;;;5080062;28;20033;-88
2023/03/09 16:12:48;;;;;;;26.08;14.70;;;4.90;99.90;;;;;;5074538;28;20032;-89
2023/03/09 16:15:19;;;;;;;21.33;13.25;;;3.90;99.90;;;;;;5075058;28;20028;-89
2023/03/09 16:17:48;;;;;;;22.10;12.57;;;4.60;99.90;;;;;;5075030;28;20025;-88
2023/03/09 16:21:20;;;;;;;24.00;12.85;;;4.90;99.90;;;;;;5072346;28;20036;-88
2023/03/09 16:23:49;;;;;;;17.25;11.90;;;4.20;99.90;;;;;;5075179;28;20047;-89
2023/03/09 16:26:22;;;;;;;17.25;11.27;;;5.10;99.90;;;;;;5074960;28;20029;-89
2023/03/09 16:28:54;;;;;;;20.95;13.48;;;4.80;99.90;;;;;;5074754;28;20021;-89
2023/03/09 16:31:24;;;;;;;18.90;12.05;;;3.90;99.90;;;;;;5075045;28;20037;-88
2023/03/09 16:33:53;;;;;;;;;;;4.80;99.90;;;;;;5074055;28;20028;-88
2023/03/09 16:36:23;;;;;;;19.42;12.35;;;4.10;99.90;;;;;;5074919;28;20018;-88
2023/03/09 16:39:00;;;;;;;21.33;13.07;;;4.10;99.90;;;;;;5074161;28;20025;-88
2023/03/09 16:41:26;;;;;;;18.77;12.40;;;4.70;99.90;;;;;;5074283;28;20031;-89
2023/03/09 16:43:57;;;;;;;17.08;11.88;;;4.40;99.90;;;;;;5074533;28;20032;-90
2023/03/09 16:46:28;;;;;;;;;;;5.20;99.90;;;;;;5074826;28;20039;-88
2023/03/09 16:48:56;;;;;;;21.50;13.75;;;4.10;99.90;;;;;;5074495;28;19905;-88
2023/03/09 16:51:22;;;;;;;19.05;11.93;;;4.60;99.90;;;;;;5073949;28;20032;-88
2023/03/09 16:53:48;;;;;;;21.63;12.45;;;4.80;99.90;;;;;;5100733;22;20048;-88
2023/03/09 16:56:15;;;;;;;18.15;11.82;;;4.70;99.90;;;;;;5092001;28;20082;-88
2023/03/09 16:58:41;;;;;;;20.15;11.88;;;3.90;99.90;;;;;;5094140;28;20550;-88
2023/03/09 17:01:17;;;;;;;14.25;10.52;;;4.80;99.90;;;;;;5093888;28;20039;-87
2023/03/09 17:03:43;;;;;;;16.20;11.70;;;4.00;99.90;;;;;;5094451;28;20020;-88
2023/03/09 17:06:18;;;;;;;17.27;11.30;;;4.60;99.90;;;;;;5093987;28;20035;-88
2023/03/09 17:08:44;;;;;;;18.25;11.57;;;4.40;99.90;;;;;;5093577;28;20024;-88
2023/03/09 17:11:15;;;;;;;16.23;11.48;;;4.60;99.90;;;;;;5103522;28;20026;-88
2023/03/09 17:13:47;;;;;;;14.48;10.73;;;4.80;99.90;;;;;;5098709;28;20447;-88
2023/03/09 17:16:15;;;;;;;16.83;10.35;;;4.30;99.90;;;;;;5094477;28;20114;-89
2023/03/09 17:18:40;;;;;;;13.98;10.18;;;4.80;99.90;;;;;;5094057;28;20024;-88
2023/03/09 17:21:10;;;;;;;14.98;9.82;;;4.10;99.90;;;;;;5093887;28;20034;-88
2023/03/09 17:23:36;;;;;;;14.70;9.97;;;4.20;99.90;;;;;;5094562;28;20024;-88
2023/03/09 17:26:04;;;;;;;15.25;10.40;;;5.50;99.90;;;;;;5094257;28;20485;-89
2023/03/09 17:28:30;;;;;;;15.18;9.70;;;4.30;99.90;;;;;;5093771;28;20024;-88
2023/03/09 17:31:08;;;;;;;14.00;10.25;;;4.30;99.90;;;;;;5093566;28;20032;-88
2023/03/09 17:33:33;;;;;;;15.57;10.48;;;4.30;99.90;;;;;;5093995;28;20024;-88
2023/03/09 17:36:05;;;;;;;14.88;10.20;;;4.20;99.90;;;;;;5093629;28;20057;-88
2023/03/09 17:38:31;;;;;;;13.68;8.93;;;4.10;99.90;;;;;;5098281;22;20044;-89
2023/03/09 17:43:31;;;;;;;15.57;10.40;;;4.20;99.90;;;;;;5080286;23;20462;-89
2023/03/09 17:46:05;;;;;;;13.77;9.50;;;4.10;99.90;;;;;;5073421;28;20440;-89
2023/03/09 17:48:35;;;;;;;13.60;9.05;;;5.00;99.90;;;;;;5065695;23;20145;-90
2023/03/09 17:51:06;;;;;;;15.93;10.55;;;4.20;99.90;;;;;;5090405;22;20139;-90
2023/03/09 17:53:33;;;;;;;16.63;9.75;;;4.10;99.90;;;;;;5093611;28;20016;-89
2023/03/09 17:56:00;;;;;;;13.90;9.63;;;4.40;99.90;;;;;;5092945;28;20024;-87
2023/03/09 17:58:29;;;;;;;15.90;9.75;;;4.50;99.90;;;;;;5093226;28;20094;-89
2023/03/09 18:00:57;;;;;;;13.73;9.50;;;4.90;99.90;;;;;;5105257;23;20134;-89
2023/03/09 18:03:32;;;;;;;11.90;9.55;;;4.00;99.90;;;;;;5112903;22;20031;-89
2023/03/09 18:06:01;;;;;;;18.05;10.75;;;3.80;99.90;;;;;;5073060;28;20119;-89
2023/03/09 18:08:30;;;;;;;12.80;8.82;;;4.60;99.90;;;;;;5072817;28;20017;-89
2023/03/09 18:11:11;;;;;;;12.50;8.57;;;4.90;99.90;;;;;;5077943;22;20393;-90
2023/03/09 18:13:37;;;;;;;14.07;9.50;;;4.00;99.90;;;;;;5056257;28;20025;-89
2023/03/09 18:16:06;;;;;;;14.90;9.10;;;4.60;99.90;;;;;;5092582;23;20056;-90
2023/03/09 18:18:37;;;;;;;14.48;8.77;;;5.40;99.90;;;;;;5093507;28;20115;-89
2023/03/09 18:21:05;;;;;;;13.93;9.75;;;4.60;99.90;;;;;;5092824;28;20035;-89
2023/03/09 18:26:50;;;;;;;16.80;10.65;;;4.10;99.90;;;;;;5265642;22;20293;-91
2023/03/09 18:29:50;;;;;;;15.68;9.27;;;4.00;99.90;;;;;;4973324;28;20038;-92
2023/03/09 18:32:55;;;;;;;12.32;9.23;;;3.80;99.90;;;;;;4972756;28;20033;-91
2023/03/09 18:39:30;;;;;;;;;;;;;;;;;;;;;
2023/03/09 18:46:27;;;;;;;14.98;9.57;;;4.00;99.90;;;;;;5034782;28;20159;-91
2023/03/09 18:49:40;;;;;;;;;;;;;;;;;;;;;
2023/03/09 18:53:12;;;;;;;;;;;;;;;;;;;;;
2023/03/09 18:58:32;;;;;;;10.60;8.57;;;4.60;99.90;;;;;;5034948;28;20021;-89
2023/03/09 19:01:08;;;;;;;17.27;9.98;;;4.00;99.90;;;;;;5028609;28;20064;-91
2023/03/09 19:03:34;;;;;;;14.88;10.10;;;4.70;99.90;;;;;;5034404;28;20084;-91
2023/03/09 19:06:38;;;;;;;12.98;9.40;;;4.70;99.90;;;;;;5034041;28;20017;-90
2023/03/09 19:09:25;;;;;;;11.40;8.68;;;5.40;99.90;;;;;;5012484;28;20090;-89
2023/03/09 19:11:53;;;;;;;11.15;8.63;;;5.00;99.90;;;;;;5189663;22;20242;-88
2023/03/09 19:14:23;;;;;;;11.20;7.95;;;4.20;99.90;;;;;;5033403;28;20047;-90
2023/03/09 19:20:30;;;;;;;9.63;7.43;;;4.40;99.90;;;;;;5009890;28;20403;-89
2023/03/09 19:23:59;;;;;;;10.00;7.38;;;4.90;99.90;;;;;;5082150;22;20224;-88
2023/03/09 19:26:30;;;;;;;8.00;7.20;;;4.30;99.90;;;;;;5026018;28;20045;-89
2023/03/09 19:29:05;;;;;;;7.53;6.75;;;3.80;99.90;;;;;;5034410;28;20033;-90
2023/03/09 19:32:06;;;;;;;9.70;7.68;;;5.00;99.90;;;;;;5040784;22;20063;-88
2023/03/09 19:34:34;;;;;;;7.30;6.10;;;4.40;99.90;;;;;;5003002;28;20385;-88
2023/03/09 19:40:07;;;;;;;6.75;5.88;;;4.30;99.90;;;;;;5274479;22;20062;-89
2023/03/09 19:42:35;;;;;;;8.27;6.15;;;4.30;99.90;;;;;;5026712;28;20033;-90
2023/03/09 19:45:07;;;;;;;8.85;6.38;;;4.30;99.90;;;;;;5017904;23;20058;-90
2023/03/09 19:48:23;;;;;;;;;;;;;;;;;;;;;
2023/03/09 19:51:12;;;;;;;7.35;6.65;;;5.20;99.90;;;;;;4990686;28;20173;-89
2023/03/09 19:54:13;;;;;;;7.32;6.55;;;5.10;99.90;;;;;;5013644;28;20026;-90
2023/03/09 19:56:43;;;;;;;7.35;6.05;;;4.30;99.90;;;;;;4978135;28;20038;-91
2023/03/09 19:59:14;;;;;;;5.90;5.35;;;4.80;99.90;;;;;;5035042;28;20469;-90
2023/03/09 20:01:44;;;;;;;;;;;4.20;99.90;;;;;;5033207;28;20033;-88
2023/03/09 20:07:06;;;;;;;8.90;6.15;;;5.10;99.90;;;;;;5086116;23;20036;-90
2023/03/09 20:10:00;;;;;;;7.10;6.25;;;4.60;99.90;;;;;;5076831;22;20041;-90
2023/03/09 20:18:50;;;;;;;5.90;5.35;;;4.10;99.90;;;;;;5290773;22;20140;-94
2023/03/09 20:21:16;;;;;;;6.72;6.07;;;3.70;99.90;;;;;;5003216;28;20037;-91
2023/03/09 20:23:44;;;;;;;6.88;6.18;;;4.80;99.90;;;;;;5056480;28;20100;-91
2023/03/09 20:26:19;;;;;;;6.47;5.80;;;4.90;99.90;;;;;;5068118;28;20576;-89
2023/03/09 20:28:45;;;;;;;6.60;6.00;;;4.00;99.90;;;;;;5058792;28;20049;-91
2023/03/09 20:31:24;;;;;;;6.80;6.13;;;4.90;99.90;;;;;;5064919;28;20036;-92
2023/03/09 20:33:50;;;;;;;6.80;5.95;;;4.70;99.90;;;;;;5066456;28;20050;-91
2023/03/09 20:36:19;;;;;;;7.57;6.75;;;3.70;99.90;;;;;;5062176;28;20021;-91
2023/03/09 20:38:45;;;;;;;7.60;6.78;;;4.40;99.90;;;;;;5045806;23;20523;-91
2023/03/09 20:41:13;;;;;;;9.63;6.65;;;4.40;99.90;;;;;;5028824;28;20100;-91
2023/03/09 20:46:17;;;;;;;7.15;6.28;;;3.70;99.90;;;;;;5084094;22;20144;-89
2023/03/09 20:48:46;;;;;;;6.57;5.97;;;4.20;99.90;;;;;;5073681;28;20504;-91
2023/03/09 20:51:18;;;;;;;7.40;6.70;;;4.40;99.90;;;;;;5104606;22;20054;-89
2023/03/09 21:06:51;;;;;;;;;;;;;;;;;;;;;
2023/03/09 21:09:18;;;;;;;8.25;6.45;;;3.80;99.90;;;;;;4940944;28;20038;-89
2023/03/09 21:12:28;;;;;;;;;;;;;;;;;;;;;
2023/03/09 21:15:42;;;;;;;7.50;6.70;;;4.40;99.90;;;;;;4975569;28;20038;-90
2023/03/09 21:18:14;;;;;;;7.40;6.68;;;3.80;99.90;;;;;;4973284;28;20118;-92
2023/03/09 21:21:19;;;;;;;7.80;7.00;;;3.90;99.90;;;;;;4972386;28;20038;-92
2023/03/09 21:27:53;;;;;;;6.57;5.95;;;4.00;99.90;;;;;;4896010;29;20056;-92
2023/03/09 21:30:50;;;;;;;7.25;6.50;;;4.10;99.90;;;;;;4870483;29;20043;-90
2023/03/09 21:33:22;;;;;;;6.90;6.20;;;4.10;99.90;;;;;;4888014;29;20036;-91
2023/03/09 21:36:01;;;;;;;;;;;;;;;;;;;;;
2023/03/09 21:41:46;;;;;;;7.50;6.70;;;4.90;99.90;;;;;;4927160;29;20038;-91
2023/03/09 21:44:24;;;;;;;;;;;;;;;;;;;;;
2023/03/09 21:50:07;;;;;;;6.53;5.82;;;3.70;99.90;;;;;;4965878;28;20078;-89
2023/03/09 21:52:33;;;;;;;6.55;5.95;;;4.20;99.90;;;;;;4966256;28;20022;-90
2023/03/09 21:54:58;;;;;;;6.88;6.25;;;4.80;99.90;;;;;;5031780;23;20393;-90
2023/03/09 21:57:24;;;;;;;7.20;6.60;;;4.80;99.90;;;;;;5071063;28;20024;-90
2023/03/09 21:59:56;;;;;;;6.35;5.80;;;5.00;99.90;;;;;;5070588;28;20032;-91
2023/03/09 22:02:22;;;;;;;5.80;5.30;;;5.20;99.90;;;;;;5070499;28;20044;-91
2023/03/09 22:10:56;;;;;;;9.00;5.93;;;5.00;99.90;;;;;;5060799;28;20052;-90
2023/03/09 22:13:30;;;;;;;5.95;5.38;;;5.00;99.90;;;;;;5073622;28;20017;-91
2023/03/09 22:16:20;;;;;;;5.90;5.40;;;5.00;99.90;;;;;;5073146;28;20017;-90
2023/03/09 22:18:52;;;;;;;8.10;6.22;;;3.40;99.90;;;;;;5060778;28;20017;-90
2023/03/09 22:21:22;;;;;;;6.97;6.28;;;4.40;99.90;;;;;;5073069;28;20059;-91
2023/03/09 22:23:59;;;;;;;6.32;5.72;;;4.10;99.90;;;;;;5072194;28;20460;-90
2023/03/09 22:30:27;;;;;;;5.65;5.15;;;4.20;99.90;;;;;;5059759;28;20045;-91
2023/03/09 22:33:03;;;;;;;6.05;5.55;;;4.40;99.90;;;;;;4994699;28;20497;-92
2023/03/09 22:35:41;;;;;;;;;;;;;;;;;;;;;
2023/03/09 22:42:30;;;;;;;6.80;6.20;;;3.60;99.90;;;;;;5037346;28;20033;-90
2023/03/09 22:44:59;;;;;;;7.05;6.45;;;4.10;99.90;;;;;;5026618;28;20060;-91
2023/03/09 22:47:31;;;;;;;6.60;6.00;;;4.40;99.90;;;;;;5056773;28;20029;-90
2023/03/09 22:50:00;;;;;;;7.15;6.03;;;5.00;99.90;;;;;;5056480;28;20064;-91
2023/03/09 22:52:35;;;;;;;6.90;6.30;;;5.10;99.90;;;;;;5057885;28;20025;-90
2023/03/09 22:55:01;;;;;;;6.97;6.38;;;4.90;99.90;;;;;;5054836;28;20098;-91
2023/03/09 22:57:32;;;;;;;7.18;6.10;;;5.20;99.90;;;;;;5054611;28;20092;-90
2023/03/09 22:59:58;;;;;;;6.45;5.85;;;4.50;99.90;;;;;;5053783;28;20265;-90
2023/03/09 23:02:30;;;;;;;7.03;6.40;;;4.40;99.90;;;;;;5054009;28;20105;-89
2023/03/09 23:04:59;;;;;;;7.53;6.65;;;5.10;99.90;;;;;;5054581;28;20029;-90
2023/03/09 23:07:30;;;;;;;7.60;6.90;;;5.30;99.90;;;;;;5054600;28;20021;-89
2023/03/09 23:09:56;;;;;;;6.72;6.13;;;4.80;99.90;;;;;;5055847;28;20036;-90
2023/03/09 23:12:25;;;;;;;9.10;6.88;;;5.10;99.90;;;;;;5054723;28;20377;-91
2023/03/09 23:14:55;;;;;;;6.72;6.13;;;5.90;99.90;;;;;;5059701;22;20281;-90
2023/03/09 23:19:54;;;;;;;7.00;6.30;;;4.60;99.90;;;;;;5032083;23;20057;-89
2023/03/09 23:22:20;;;;;;;6.75;6.15;;;5.30;99.90;;;;;;5035656;28;20033;-90
2023/03/09 23:24:49;;;;;;;6.50;5.90;;;4.90;99.90;;;;;;5035490;28;20495;-90
2023/03/09 23:27:14;;;;;;;6.15;5.65;;;5.30;99.90;;;;;;5036280;28;20493;-90
2023/03/09 23:29:40;;;;;;;6.93;6.32;;;5.00;99.90;;;;;;5047271;28;20039;-90
2023/03/09 23:32:07;;;;;;;6.15;5.55;;;5.00;99.90;;;;;;5036094;28;20029;-90
2023/03/09 23:34:38;;;;;;;7.65;6.70;;;5.20;99.90;;;;;;5035173;28;20447;-90
2023/03/09 23:37:06;;;;;;;5.78;5.28;;;5.30;99.90;;;;;;5036044;28;20033;-90
2023/03/09 23:39:31;;;;;;;6.22;5.57;;;5.20;99.90;;;;;;5035657;28;20036;-90
2023/03/09 23:41:57;;;;;;;6.65;6.00;;;5.30;99.90;;;;;;5064712;22;20052;-90
2023/03/09 23:44:23;;;;;;;6.47;5.95;;;5.40;99.90;;;;;;5184070;22;20045;-90
2023/03/09 23:46:49;;;;;;;6.75;6.15;;;4.60;99.90;;;;;;5034675;28;20029;-89
2023/03/09 23:49:14;;;;;;;6.50;5.90;;;5.40;99.90;;;;;;5034772;28;20030;-89
2023/03/09 23:51:40;;;;;;;6.82;6.22;;;5.20;99.90;;;;;;5035583;28;20302;-89
2023/03/09 23:54:06;;;;;;;6.57;5.97;;;4.70;99.90;;;;;;5036026;28;20607;-89
2023/03/09 23:56:37;;;;;;;8.18;7.45;;;4.50;99.90;;;;;;5034188;28;20099;-89
2023/03/09 23:59:03;;;;;;;7.28;6.68;;;5.30;99.90;;;;;;5056301;22;20049;-89
